Tiempo atmosférico en la estación meteorológica de Cabo de Gata, Almería (42 m.)



Fecha
DESCASC
Temp. máxima en grados centígrados (hora)
DESCASC
Temp. mínima en grados centígrados (hora)
DESCASC
Temp. media en grados centígrados
DESCASC
Racha de viento máxima en m/sg (hora)
DESCASC
Velocidad máxima media en intervalos de 10 minutos(hora)
DESCASC
Precipitaciones diarias en mm
DESCASC
Precipitaciones de 00:00 a 06:00 en mm
DESCASC
Precipitaciones de 06:00 a 12:00 en mm
DESCASC
Precipitaciones de 12:00 a 18:00 en mm
DESCASC
Precipitaciones de 18:00 a 24:00 en mm
DESCASC
13-01-2021 15.6 (13:10) 10.9 (06:00) 13.3 10.56 (10:40) 7.22 (05:00) -- -- -- -- --
12-01-2021 14.8 (12:50) 9 (05:50) 11.9 7.22 (23:40) 5.28 (23:59) -- -- -- -- --
11-01-2021 10.7 (20:20) 8.2 (12:40) 9.4 13.61 (05:40) 8.33 (01:30) -- -- -- -- --
10-01-2021 13 (13:30) 8.6 (02:00) 10.8 12.22 (01:40) 7.78 (01:30) -- -- -- -- --
09-01-2021 13.7 (13:10) 10.5 (00:00) 12.1 21.39 (00:20) 14.17 (00:40) -- -- -- -- --
08-01-2021 11.3 (17:40) 8.2 (00:00) 9.8 23.89 (19:40) 14.44 (19:30) -- -- -- -- --
07-01-2021 11.3 (00:10) 7.9 (00:00) 9.6 20 (02:40) 12.5 (23:30) -- -- -- -- --
06-01-2021 12.3 (19:10) 9.9 (00:00) 11.1 16.39 (20:00) 10.28 (17:40) -- -- -- -- --
05-01-2021 12.6 (13:20) 9.7 (00:00) 11.2 13.33 (15:20) 9.44 (15:40) -- -- -- -- --
04-01-2021 16.1 (12:10) 8.5 (00:00) 12.3 10.28 (18:50) 5.28 (01:00) -- -- -- -- --
03-01-2021 16 (12:50) 9 (00:00) 12.5 22.78 (02:40) 10.28 (06:30) -- -- -- -- --
02-01-2021 14.7 (13:40) 9.9 (00:00) 12.3 20.83 (12:30) 11.11 (20:10) -- -- -- -- --
01-01-2021 15.6 (13:40) 11.2 (00:00) 13.4 21.94 (11:40) 12.78 (05:20) -- -- -- -- --
31-12-2020 17.3 (13:50) 9.8 (00:00) 13.5 10 (22:40) 5.83 (23:59) -- -- -- -- --
30-12-2020 18 (13:20) 11.2 (00:00) 14.6 19.17 (09:40) 10.28 (08:50) -- -- -- -- --
29-12-2020 17.3 (12:30) 10.9 (00:00) 14.1 17.78 (23:40) 11.11 (19:00) -- -- -- -- --
28-12-2020 16.8 (13:10) 14 (00:00) 15.4 22.78 (05:40) 15.28 (03:30) -- -- -- -- --
27-12-2020 14.9 (23:40) 8.1 (00:00) 11.5 16.11 (23:50) 10.56 (23:20) -- -- -- -- --
26-12-2020 13.4 (11:00) 9.1 (00:00) 11.3 15.28 (07:40) 10.83 (12:50) -- -- -- -- --
25-12-2020 16.9 (11:50) 12.6 (00:00) 14.8 18.06 (21:10) 12.5 (21:10) -- -- -- -- --
24-12-2020 17.1 (15:30) 13.9 (00:00) 15.5 9.72 (00:40) 7.5 (00:40) -- -- -- -- --
23-12-2020 18.7 (12:40) 13.4 (00:00) 16.1 9.17 (23:40) 6.67 (22:30) -- -- -- -- --
22-12-2020 18.6 (12:30) 13.7 (00:00) 16.2 10 (15:30) 8.06 (15:30) -- -- -- -- --
21-12-2020 18.1 (12:30) 13.8 (00:00) 16 6.67 (06:20) 3.89 (13:10) -- -- -- -- --
20-12-2020 18.4 (14:00) 14 (00:00) 16.2 9.17 (11:20) 6.39 (11:20) -- -- -- -- --
19-12-2020 18 (13:50) 12.8 (00:00) 15.4 7.5 (17:50) 4.44 (10:40) -- -- -- -- --

Gráficas

Temp. máximas Temp. mínimas Temp. medias Precipitaciones Rachas de viento máximas Velocidades máximas media en intervalos de 10 minutos

Datos horarios

Fecha y hora oficial Temperatura (ºC) Velocidad del viento (km/h) Dirección del viento Racha (km/h) Dirección de racha Precipitación (mm) Presión (hPa) Tendencia (hPa) Humedad (%)
2021-01-17 23:00:00 13.3 22 Oeste 32 Oeste -- -- -- 84
2021-01-17 22:00:00 13.2 18 Oeste 31 Noroeste -- -- -- 83
2021-01-17 21:00:00 13.3 21 Oeste 30 Noroeste -- -- -- 83
2021-01-17 20:00:00 13.5 21 Oeste 31 Oeste -- -- -- 83
2021-01-17 19:00:00 13.7 16 Oeste 28 Oeste -- -- -- 81
2021-01-17 18:00:00 13.8 20 Oeste 27 Oeste -- -- -- 79
2021-01-17 17:00:00 14.1 16 Oeste 25 Oeste -- -- -- 77
2021-01-17 16:00:00 15 15 Oeste 22 Oeste -- -- -- 74
2021-01-17 15:00:00 14.8 12 Oeste 18 Oeste -- -- -- 73
2021-01-17 14:00:00 16.3 10 Oeste 16 Oeste -- -- -- 68
2021-01-17 13:00:00 16.1 10 Oeste 22 Noroeste -- -- -- 69
2021-01-17 12:00:00 15.6 13 Oeste 22 Noroeste -- -- -- 71
2021-01-17 11:00:00 14.4 16 Oeste 27 Noroeste -- -- -- 73
2021-01-17 10:00:00 12.9 18 Noroeste 26 Noroeste -- -- -- 76
2021-01-17 09:00:00 11.6 16 Noroeste 22 Noroeste -- -- -- 79
2021-01-17 08:00:00 10.7 10 Noroeste 13 Noroeste -- -- -- 79
2021-01-17 07:00:00 10.8 8 Noroeste 14 Noroeste -- -- -- 79
2021-01-17 06:00:00 11 7 Noroeste 15 Noroeste -- -- -- 79
2021-01-17 05:00:00 10.7 7 Noroeste 13 Norte -- -- -- 78
2021-01-17 04:00:00 11.4 7 Norte 14 Noroeste -- -- -- 79
2021-01-17 03:00:00 11.2 8 Noroeste 14 Norte -- -- -- 78
2021-01-17 02:00:00 11.4 7 Norte 13 Norte -- -- -- 78
2021-01-17 01:00:00 11.8 7 Norte 12 Norte -- -- -- 77
2021-01-17 00:00:00 12.1 6 Norte 9 Norte -- -- -- 76
2021-01-16 23:00:00 12.1 5 Noroeste 8 Norte -- -- -- 75
2021-01-16 22:00:00 12.4 3 Norte 10 Nordeste -- -- -- 73
2021-01-16 21:00:00 12.7 8 Nordeste 15 Nordeste -- -- -- 73
2021-01-16 20:00:00 12.9 10 Nordeste 15 Nordeste -- -- -- 72
2021-01-16 19:00:00 13.1 11 Nordeste 26 Este -- -- -- 71
2021-01-16 18:00:00 13.4 17 Este 37 Este -- -- -- 70
2021-01-16 17:00:00 13.5 31 Este 50 Este -- -- -- 69
2021-01-16 16:00:00 13.5 38 Este 52 Este -- -- -- 67
2021-01-16 15:00:00 13.8 30 Este 51 Este -- -- -- 65
2021-01-16 14:00:00 14.6 28 Este 50 Este -- -- -- 60
2021-01-16 13:00:00 14.8 23 Este 50 Este -- -- -- 48
2021-01-16 12:00:00 14.4 33 Este 52 Este -- -- -- 55
2021-01-16 11:00:00 14.8 37 Este 57 Este -- -- -- 67
2021-01-16 10:00:00 15.1 20 Este 35 Nordeste -- -- -- 47
2021-01-16 09:00:00 14.1 18 Nordeste 40 Nordeste -- -- -- 52
2021-01-16 08:00:00 12.6 7 Norte 21 Noroeste -- -- -- 41
2021-01-16 07:00:00 12.4 12 Oeste 27 Noroeste -- -- -- 58
2021-01-16 06:00:00 11.8 14 Noroeste 32 Oeste -- -- -- 53
2021-01-16 05:00:00 12.7 21 Oeste 47 Noroeste -- -- -- 54
2021-01-16 04:00:00 11.2 15 Oeste 32 Noroeste -- -- -- 65
2021-01-16 03:00:00 11.7 14 Noroeste 24 Oeste -- -- -- 71
2021-01-16 02:00:00 11.9 12 Noroeste 27 Noroeste -- -- -- 79
2021-01-16 01:00:00 12.4 15 Oeste 26 Oeste -- -- -- 81
2021-01-16 00:00:00 12.6 16 Oeste 29 Noroeste -- -- -- 81
2021-01-15 23:00:00 12.9 18 Oeste 26 Oeste -- -- -- 80
2021-01-15 22:00:00 13 16 Oeste 24 Oeste -- -- -- 78
2021-01-15 21:00:00 13.2 18 Oeste 22 Oeste -- -- -- 76
2021-01-15 20:00:00 13.3 14 Oeste 19 Oeste -- -- -- 74
2021-01-15 19:00:00 13.4 12 Oeste 17 Sudoeste -- -- -- 73
2021-01-15 18:00:00 14 7 Oeste 18 Oeste -- -- -- 72
2021-01-15 17:00:00 14.6 7 Oeste 15 Sudoeste -- -- -- 70
2021-01-15 16:00:00 15.3 10 Oeste 19 Sudoeste -- -- -- 68
2021-01-15 15:00:00 15.4 4 Sur 10 Oeste -- -- -- 68
2021-01-15 14:00:00 16.9 2 Sudoeste 10 Oeste -- -- -- 64
2021-01-15 13:00:00 17 6 Oeste 13 Oeste -- -- -- 64
2021-01-15 12:00:00 16.6 7 Oeste 15 Noroeste -- -- -- 67
2021-01-15 11:00:00 15.1 7 Oeste 26 Noroeste -- -- -- 69
2021-01-15 10:00:00 13.2 14 Noroeste 22 Noroeste -- -- -- 73
2021-01-15 09:00:00 11.4 9 Noroeste 17 Noroeste -- -- -- 72
2021-01-15 08:00:00 11.7 9 Noroeste 15 Oeste -- -- -- 68
2021-01-15 07:00:00 11.6 10 Norte 18 Noroeste -- -- -- 68
2021-01-15 06:00:00 11.5 3 Norte 15 Noroeste -- -- -- 69
2021-01-15 05:00:00 11.9 5 Nordeste 9 Este -- -- -- 68
2021-01-15 04:00:00 11.7 6 Nordeste 21 Noroeste -- -- -- 73
2021-01-15 03:00:00 11.8 14 Noroeste 24 Noroeste -- -- -- 72
2021-01-15 02:00:00 12.2 11 Oeste 21 Oeste -- -- -- 80
2021-01-15 01:00:00 12.2 8 Noroeste 13 Noroeste -- -- -- 79
2021-01-15 00:00:00 12.4 6 Noroeste 13 Noroeste -- -- -- 77
2021-01-14 23:00:00 12.9 7 Noroeste 19 Oeste -- -- -- 76
2021-01-14 22:00:00 13.3 13 Noroeste 25 Noroeste -- -- -- 76
2021-01-14 21:00:00 13.4 18 Oeste 27 Oeste -- -- -- 74
2021-01-14 20:00:00 13.3 18 Oeste 32 Oeste -- -- -- 72
2021-01-14 19:00:00 13.1 19 Oeste 26 Oeste -- -- -- 70
2021-01-14 18:00:00 13.7 15 Oeste 21 Oeste -- -- -- 69
2021-01-14 17:00:00 14 15 Oeste 23 Oeste -- -- -- 67
2021-01-14 16:00:00 15 10 Oeste 21 Oeste -- -- -- 64
2021-01-14 15:00:00 14.9 12 Oeste 20 Oeste -- -- -- 67
2021-01-14 14:00:00 16.3 6 Oeste 10 Sudoeste -- -- -- 65
2021-01-14 13:00:00 15.3 3 Noroeste 10 Sudoeste -- -- -- 67
2021-01-14 12:00:00 15.4 5 Oeste 14 Oeste -- -- -- 70
2021-01-14 11:00:00 14.5 6 Oeste 18 Noroeste -- -- -- 74
2021-01-14 10:00:00 12.9 13 Oeste 23 Oeste -- -- -- 77
2021-01-14 09:00:00 11.6 13 Oeste 24 Oeste -- -- -- 79
2021-01-14 08:00:00 11.4 14 Noroeste 23 Noroeste -- -- -- 80
2021-01-14 07:00:00 11.5 11 Oeste 20 Oeste -- -- -- 79
2021-01-14 06:00:00 11.7 12 Oeste 21 Noroeste -- -- -- 78
2021-01-14 05:00:00 11.5 11 Oeste 21 Oeste -- -- -- 77
2021-01-14 04:00:00 11.3 11 Oeste 21 Oeste -- -- -- 77
2021-01-14 03:00:00 11.3 8 Noroeste 19 Noroeste -- -- -- 76
2021-01-14 02:00:00 11.8 17 Noroeste 30 Noroeste -- -- -- 75
2021-01-14 01:00:00 11.8 16 Noroeste 26 Noroeste -- -- -- 76
2021-01-14 00:00:00 11.9 15 Noroeste 24 Noroeste -- -- -- 76
2021-01-13 23:00:00 12.2 16 Oeste 30 Oeste -- -- -- 74
2021-01-13 22:00:00 12.4 18 Oeste 33 Sudoeste -- -- -- 74
2021-01-13 21:00:00 12.6 18 Oeste 35 Oeste -- -- -- 74
2021-01-13 20:00:00 12.7 18 Oeste 31 Oeste -- -- -- 73
2021-01-13 19:00:00 12.8 19 Oeste 32 Oeste -- -- -- 71
2021-01-13 18:00:00 13.1 15 Oeste 32 Oeste -- -- -- 70
2021-01-13 17:00:00 13.5 14 Sudoeste 29 Oeste -- -- -- 68
2021-01-13 16:00:00 14.1 15 Oeste 31 Oeste -- -- -- 65
2021-01-13 15:00:00 14.2 14 Sudoeste 28 Oeste -- -- -- 64
2021-01-13 14:00:00 15.4 17 Oeste 30 Oeste -- -- -- 59
2021-01-13 13:00:00 15.2 14 Oeste 28 Oeste -- -- -- 63
2021-01-13 12:00:00 14.4 15 Oeste 36 Noroeste -- -- -- 63
2021-01-13 11:00:00 13 20 Oeste 38 Noroeste -- -- -- 66
2021-01-13 10:00:00 12.4 23 Oeste 36 Oeste -- -- -- 68
2021-01-13 09:00:00 11.4 22 Noroeste 37 Noroeste -- -- -- 70
2021-01-13 08:00:00 11.1 21 Oeste 35 Noroeste -- -- -- 70
2021-01-13 07:00:00 11.2 26 Noroeste 35 Noroeste -- -- -- 70
2021-01-13 06:00:00 10.9 22 Noroeste 35 Oeste -- -- -- 72
2021-01-13 05:00:00 11.3 26 Noroeste 34 Noroeste -- -- -- 73
2021-01-13 04:00:00 11.1 21 Noroeste 33 Noroeste -- -- -- 73
2021-01-13 03:00:00 11.3 22 Noroeste 32 Noroeste -- -- -- 72
2021-01-13 02:00:00 11.2 21 Noroeste 34 Noroeste -- -- -- 71
2021-01-13 01:00:00 11.3 21 Noroeste 29 Noroeste -- -- -- 70
2021-01-13 00:00:00 11.4 19 Noroeste 26 Oeste -- -- -- 70
2021-01-12 23:00:00 11.7 18 Oeste 26 Noroeste -- -- -- 70
2021-01-12 22:00:00 12.1 15 Oeste 25 Oeste -- -- -- 67
2021-01-12 21:00:00 12.2 12 Oeste 23 Sudoeste -- -- -- 68
2021-01-12 20:00:00 12.1 11 Oeste 23 Oeste -- -- -- 68
2021-01-12 19:00:00 12.2 12 Oeste 25 Oeste -- -- -- 67
2021-01-12 18:00:00 12.6 11 Oeste 23 Sudoeste -- -- -- 69
2021-01-12 17:00:00 12.8 10 Oeste 26 Oeste -- -- -- 66
2021-01-12 16:00:00 13.5 12 Oeste 23 Oeste -- -- -- 69
2021-01-12 15:00:00 13.4 7 Oeste 14 Oeste -- -- -- 71
2021-01-12 14:00:00 14.6 6 Oeste 10 Noroeste -- -- -- 68
2021-01-12 13:00:00 14.6 2 Oeste 6 Sudoeste -- -- -- 67
2021-01-12 12:00:00 13.6 3 Oeste 10 Oeste -- -- -- 71
2021-01-12 11:00:00 12.8 5 Oeste 13 Noroeste -- -- -- 75
2021-01-12 10:00:00 10.3 3 Norte 10 Noroeste -- -- -- 78
2021-01-12 09:00:00 9.4 0 Calma 12 Norte -- -- -- 77
2021-01-12 08:00:00 9.3 4 Norte 13 Norte -- -- -- 77
2021-01-12 07:00:00 9.2 5 Noroeste 8 Noroeste -- -- -- 76
2021-01-12 06:00:00 9 7 Noroeste 12 Noroeste -- -- -- 77
2021-01-12 05:00:00 9.1 7 Noroeste 12 Norte -- -- -- 77
2021-01-12 04:00:00 9.7 10 Norte 14 Norte -- -- -- 77
2021-01-12 03:00:00 10.3 12 Norte 21 Norte -- -- -- 77
2021-01-12 02:00:00 10.2 12 Norte 22 Noroeste -- -- -- 78
2021-01-12 01:00:00 9.2 12 Noroeste 17 Norte -- -- -- 79
2021-01-12 00:00:00 10 8 Norte 18 Noroeste -- -- -- 78
2021-01-11 23:00:00 10.7 11 Norte 26 Noroeste -- -- -- 76
2021-01-11 22:00:00 10.7 12 Norte 19 Nordeste -- -- -- 75
2021-01-11 21:00:00 10.6 6 Norte 26 Nordeste -- -- -- 74
2021-01-11 20:00:00 10.4 10 Norte 21 Nordeste -- -- -- 73
2021-01-11 19:00:00 10.3 11 Nordeste 26 Nordeste -- -- -- 74
2021-01-11 18:00:00 9.9 8 Norte 20 Nordeste -- -- -- 78
2021-01-11 17:00:00 9.2 14 Nordeste 23 Nordeste -- -- -- 80
2021-01-11 16:00:00 9.1 18 Nordeste 27 Nordeste -- -- -- 82
2021-01-11 15:00:00 9 19 Nordeste 33 Este -- -- -- 83
2021-01-11 14:00:00 8.7 19 Nordeste 33 Nordeste -- -- -- 84
2021-01-11 13:00:00 8.4 14 Nordeste 37 Nordeste -- -- -- 84
2021-01-11 12:00:00 8.6 8 Oeste 14 Noroeste -- -- -- 83
2021-01-11 11:00:00 8.4 4 Norte 17 Este -- -- -- 80
2021-01-11 10:00:00 9.1 3 Sudoeste 14 Noroeste -- -- -- 76
2021-01-11 09:00:00 9.3 6 Norte 23 Nordeste -- -- -- 74
2021-01-11 08:00:00 10 12 Norte 38 Nordeste -- -- -- 72
2021-01-11 07:00:00 9.9 20 Nordeste 41 Nordeste -- -- -- 72
2021-01-11 06:00:00 10.2 24 Nordeste 49 Nordeste -- -- -- 71
2021-01-11 05:00:00 10.5 26 Nordeste 41 Nordeste -- -- -- 72
2021-01-11 04:00:00 10.2 25 Nordeste 44 Este -- -- -- 73
2021-01-11 03:00:00 10.1 24 Nordeste 39 Nordeste -- -- -- 73
2021-01-11 02:00:00 10.3 28 Norte 47 Nordeste -- -- -- 73
2021-01-11 01:00:00 10.5 25 Nordeste 39 Nordeste -- -- -- 72
2021-01-11 00:00:00 10.6 21 Norte 37 Norte -- -- -- 72
2021-01-10 23:00:00 10.8 11 Norte 25 Nordeste -- -- -- 69
2021-01-10 22:00:00 10.5 11 Nordeste 21 Nordeste -- -- -- 68
2021-01-10 21:00:00 10.2 10 Nordeste 17 Nordeste -- -- -- 65
2021-01-10 20:00:00 9.9 9 Norte 14 Norte -- -- -- 69
2021-01-10 19:00:00 10.3 7 Noroeste 14 Noroeste -- -- -- 69
2021-01-10 18:00:00 11.2 6 Oeste 14 Noroeste -- -- -- 68
2021-01-10 17:00:00 11.6 5 Oeste 16 Oeste -- -- -- 67
2021-01-10 16:00:00 12.3 4 Oeste 22 Sudoeste -- -- -- 65
2021-01-10 15:00:00 12.1 5 Oeste 23 Sudoeste -- -- -- 66
2021-01-10 14:00:00 12.4 12 Oeste 29 Oeste -- -- -- 65
2021-01-10 13:00:00 12.2 21 Oeste 32 Oeste -- -- -- 67
2021-01-10 12:00:00 10.6 21 Noroeste 35 Noroeste -- -- -- 68
2021-01-10 11:00:00 10.5 13 Noroeste 29 Noroeste -- -- -- 72
2021-01-10 10:00:00 9.4 13 Noroeste 35 Oeste -- -- -- 75
2021-01-10 09:00:00 9.3 24 Noroeste 38 Noroeste -- -- -- 75
2021-01-10 08:00:00 9.9 21 Oeste 43 Oeste -- -- -- 77
2021-01-10 07:00:00 9.8 21 Oeste 38 Oeste -- -- -- 77
2021-01-10 06:00:00 9.7 22 Oeste 33 Oeste -- -- -- 76
2021-01-10 05:00:00 9.9 10 Oeste 28 Oeste -- -- -- 78
2021-01-10 04:00:00 9.7 20 Oeste 39 Noroeste -- -- -- 77
2021-01-10 03:00:00 8.8 21 Noroeste 44 Noroeste -- -- -- 75
2021-01-10 02:00:00 8.6 26 Noroeste 44 Noroeste -- -- -- 74
2021-01-10 01:00:00 10.6 12 Oeste 31 Oeste -- -- -- 71
2021-01-10 00:00:00 10.8 8 Norte 20 Oeste -- -- -- 69
2021-01-09 23:00:00 11.3 18 Oeste 31 Oeste -- -- -- 67
2021-01-09 22:00:00 11.5 23 Oeste 42 Oeste -- -- -- 65
2021-01-09 21:00:00 11.6 35 Oeste 48 Oeste -- -- -- 62
2021-01-09 20:00:00 11.8 32 Oeste 49 Oeste -- -- -- 61
2021-01-09 19:00:00 11.9 36 Oeste 53 Oeste -- -- -- 60
2021-01-09 18:00:00 12.4 25 Oeste 55 Sudoeste -- -- -- 57
2021-01-09 17:00:00 12.4 34 Oeste 60 Oeste -- -- -- 61
2021-01-09 16:00:00 12.5 29 Oeste 59 Oeste -- -- -- 61
2021-01-09 15:00:00 12.6 35 Oeste 64 Sudoeste -- -- -- 60
2021-01-09 14:00:00 13.3 38 Oeste 72 Sudoeste -- -- -- 60
2021-01-09 13:00:00 13.6 41 Oeste 71 Sudoeste -- -- -- 62
2021-01-09 12:00:00 13.3 41 Oeste 70 Oeste -- -- -- 69
2021-01-09 11:00:00 13.3 47 Oeste 73 Sudoeste -- -- -- 70
2021-01-09 10:00:00 13.4 33 Oeste 54 Oeste -- -- -- 70
2021-01-09 09:00:00 12.8 32 Sudoeste 53 Noroeste -- -- -- 75
2021-01-09 08:00:00 13 27 Oeste 51 Sudoeste -- -- -- 79
2021-01-09 07:00:00 13.2 21 Oeste 39 Sudoeste -- -- -- 84
2021-01-09 06:00:00 12.4 8 Sur 21 Sur -- -- -- 86
2021-01-09 05:00:00 11.2 13 Este 16 Este -- -- -- 86
2021-01-09 04:00:00 10.9 3 Este 29 Norte -- -- -- 85
2021-01-09 03:00:00 10.5 24 Norte 72 Oeste -- -- -- 84
2021-01-09 02:00:00 12.2 16 Nordeste 67 Este -- -- -- 84
2021-01-09 01:00:00 12.8 44 Nordeste 77 Nordeste -- -- -- 85
2021-01-09 00:00:00 11.2 49 Nordeste 70 Nordeste -- -- -- 84
2021-01-08 23:00:00 10.9 48 Nordeste 70 Nordeste -- -- -- 83
2021-01-08 22:00:00 10.7 45 Nordeste 74 Nordeste -- -- -- 84
2021-01-08 21:00:00 10.4 47 Nordeste 70 Nordeste -- -- -- 83
2021-01-08 20:00:00 10 44 Nordeste 86 Nordeste -- -- -- 83
2021-01-08 19:00:00 10.7 45 Nordeste 69 Norte -- -- -- 81
2021-01-08 18:00:00 10.9 46 Nordeste 70 Nordeste -- -- -- 80
2021-01-08 17:00:00 10.9 45 Nordeste 67 Nordeste -- -- -- 81
2021-01-08 16:00:00 10.6 22 Norte 49 Nordeste -- -- -- 83
2021-01-08 15:00:00 10.9 19 Norte 64 Nordeste -- -- -- 81
2021-01-08 14:00:00 11.1 31 Norte 61 Norte -- -- -- 82
2021-01-08 13:00:00 10.4 30 Nordeste 58 Nordeste -- -- -- 83
2021-01-08 12:00:00 10.4 29 Nordeste 67 Norte -- -- -- 83
2021-01-08 11:00:00 10 34 Norte 67 Nordeste -- -- -- 83
2021-01-08 10:00:00 9.7 43 Nordeste 69 Nordeste -- -- -- 83
2021-01-08 09:00:00 9.3 44 Nordeste 76 Norte -- -- -- 82
2021-01-08 08:00:00 9.1 46 Nordeste 84 Nordeste -- -- -- 82
2021-01-08 07:00:00 9.3 46 Norte 69 Norte -- -- -- 82
2021-01-08 06:00:00 9.3 42 Norte 72 Norte -- -- -- 82
2021-01-08 05:00:00 9.5 32 Norte 66 Nordeste -- -- -- 83
2021-01-08 04:00:00 9.1 24 Norte 41 Norte -- -- -- 84
2021-01-08 03:00:00 8.4 18 Noroeste 67 Nordeste -- -- -- 84
2021-01-08 02:00:00 9.3 26 Noroeste 59 Nordeste -- -- -- 83
2021-01-08 01:00:00 9.2 19 Norte 64 Norte -- -- -- 83
2021-01-08 00:00:00 8.9 29 Norte 67 Nordeste -- -- -- 83
2021-01-07 23:00:00 9.1 42 Nordeste 70 Nordeste -- -- -- 82
2021-01-07 22:00:00 9.2 42 Nordeste 56 Nordeste -- -- -- 83
2021-01-07 21:00:00 9.3 30 Nordeste 45 Nordeste -- -- -- 82
2021-01-07 20:00:00 9.5 23 Norte 41 Norte -- -- -- 82
2021-01-07 19:00:00 9.6 9 Norte 39 Norte -- -- -- 82
2021-01-07 18:00:00 9.5 10 Noroeste 33 Norte -- -- -- 83
2021-01-07 17:00:00 9.5 12 Norte 38 Norte -- -- -- 83
2021-01-07 16:00:00 9.6 9 Norte 30 Nordeste -- -- -- 83
2021-01-07 15:00:00 9.5 8 Noroeste 19 Noroeste -- -- -- 83
2021-01-07 14:00:00 9.1 9 Noroeste 27 Noroeste -- -- -- 84
2021-01-07 13:00:00 8.4 7 Norte 20 Noroeste -- -- -- 83
2021-01-07 12:00:00 8.6 9 Noroeste 37 Norte -- -- -- 82
2021-01-07 11:00:00 8 8 Oeste 27 Nordeste -- -- -- 81
2021-01-07 10:00:00 8.6 18 Norte 50 Nordeste -- -- -- 79
2021-01-07 09:00:00 8.6 31 Norte 66 Nordeste -- -- -- 79
2021-01-07 08:00:00 8.4 23 Nordeste 53 Norte -- -- -- 79
2021-01-07 07:00:00 8.5 20 Norte 50 Norte -- -- -- 80
2021-01-07 06:00:00 8.7 19 Norte 49 Norte -- -- -- 80
2021-01-07 05:00:00 8.9 25 Norte 59 Norte -- -- -- 81
2021-01-07 04:00:00 8.2 15 Norte 39 Noroeste -- -- -- 82
2021-01-07 03:00:00 9.8 20 Nordeste 72 Norte -- -- -- 82
2021-01-07 02:00:00 10.3 30 Nordeste 59 Nordeste -- -- -- 83
2021-01-07 01:00:00 11 12 Norte 62 Nordeste -- -- -- 82
2021-01-07 00:00:00 11.2 33 Nordeste 59 Nordeste -- -- -- 81
2021-01-06 23:00:00 11.3 32 Nordeste 58 Nordeste -- -- -- 79
2021-01-06 22:00:00 11.3 21 Nordeste 47 Nordeste -- -- -- 75
2021-01-06 21:00:00 11.8 28 Nordeste 50 Nordeste -- -- -- 72
2021-01-06 20:00:00 12 37 Nordeste 59 Este -- -- -- 69
2021-01-06 19:00:00 12.2 35 Nordeste 55 Nordeste -- -- -- 66
2021-01-06 18:00:00 12.2 32 Nordeste 54 Nordeste -- -- -- 64
2021-01-06 17:00:00 12.2 21 Nordeste 36 Nordeste -- -- -- 63
2021-01-06 16:00:00 12.2 21 Nordeste 44 Nordeste -- -- -- 61
2021-01-06 15:00:00 11.9 15 Norte 35 Nordeste -- -- -- 59
2021-01-06 14:00:00 11.8 18 Nordeste 36 Nordeste -- -- -- 57
2021-01-06 13:00:00 11.3 15 Norte 34 Nordeste -- -- -- 60
2021-01-06 12:00:00 11.5 21 Norte 37 Norte -- -- -- 59
2021-01-06 11:00:00 11.6 22 Nordeste 43 Norte -- -- -- 55
2021-01-06 10:00:00 11 21 Nordeste 34 Norte -- -- -- 54
2021-01-06 09:00:00 10.5 18 Norte 28 Nordeste -- -- -- 51
2021-01-06 08:00:00 10.1 9 Norte 23 Norte -- -- -- 47
2021-01-06 07:00:00 10.1 8 Norte 22 Norte -- -- -- 46
2021-01-06 06:00:00 10 9 Norte 20 Nordeste -- -- -- 45
2021-01-06 05:00:00 10.3 10 Noroeste 32 Nordeste -- -- -- 51
2021-01-06 04:00:00 10.5 15 Nordeste 37 Nordeste -- -- -- 57
2021-01-06 03:00:00 10.8 13 Nordeste 32 Nordeste -- -- -- 58
2021-01-06 02:00:00 11.3 12 Norte 33 Este -- -- -- 58
2021-01-06 01:00:00 11.8 17 Nordeste 30 Nordeste -- -- -- 53
2021-01-06 00:00:00 11.8 20 Nordeste 34 Nordeste -- -- -- 54
2021-01-05 23:00:00 11.7 13 Nordeste 31 Norte -- -- -- 57
2021-01-05 22:00:00 11.7 21 Nordeste 35 Nordeste -- -- -- 58
2021-01-05 21:00:00 11.7 21 Este 33 Este -- -- -- 58
2021-01-05 20:00:00 11.5 21 Nordeste 34 Nordeste -- -- -- 55
2021-01-05 19:00:00 11.2 23 Nordeste 38 Nordeste -- -- -- 57
2021-01-05 18:00:00 11.2 24 Nordeste 40 Nordeste -- -- -- 57
2021-01-05 17:00:00 11.5 28 Este 46 Este -- -- -- 56
2021-01-05 16:00:00 11.9 29 Este 48 Este -- -- -- 53
2021-01-05 15:00:00 11.9 27 Este 45 Este -- -- -- 54
2021-01-05 14:00:00 12.3 28 Este 48 Este -- -- -- 58
2021-01-05 13:00:00 12 26 Nordeste 42 Nordeste -- -- -- 55
2021-01-05 12:00:00 11.7 31 Nordeste 45 Este -- -- -- 57
2021-01-05 11:00:00 11.3 28 Nordeste 41 Nordeste -- -- -- 60
2021-01-05 10:00:00 11.2 24 Nordeste 39 Nordeste -- -- -- 60
2021-01-05 09:00:00 11.2 24 Nordeste 36 Nordeste -- -- -- 57
2021-01-05 08:00:00 11.2 17 Nordeste 32 Nordeste -- -- -- 58
2021-01-05 07:00:00 11.2 17 Nordeste 23 Nordeste -- -- -- 59
2021-01-05 06:00:00 11.4 12 Nordeste 18 Nordeste -- -- -- 58
2021-01-05 05:00:00 11.3 10 Nordeste 21 Nordeste -- -- -- 58
2021-01-05 04:00:00 10.8 8 Nordeste 14 Nordeste -- -- -- 63
2021-01-05 03:00:00 10 6 Noroeste 14 Noroeste -- -- -- 61
2021-01-05 02:00:00 10.5 7 Noroeste 25 Oeste -- -- -- 63
2021-01-05 01:00:00 10.8 6 Noroeste 13 Norte -- -- -- 60
2021-01-05 00:00:00 12 5 Oeste 16 Sudoeste -- -- -- 57
2021-01-04 23:00:00 12.6 8 Sudoeste 22 Sudoeste -- -- -- 58
2021-01-04 22:00:00 12.9 10 Oeste 23 Sudoeste -- -- -- 56
2021-01-04 21:00:00 12.9 14 Oeste 35 Sudoeste -- -- -- 60
2021-01-04 20:00:00 13 17 Oeste 33 Sudoeste -- -- -- 62
2021-01-04 19:00:00 13 18 Oeste 37 Oeste -- -- -- 57
2021-01-04 18:00:00 12.9 11 Oeste 29 Oeste -- -- -- 57
2021-01-04 17:00:00 12.8 16 Oeste 31 Oeste -- -- -- 56
2021-01-04 16:00:00 13.3 15 Sudoeste 31 Oeste -- -- -- 52
2021-01-04 15:00:00 13.1 14 Oeste 31 Oeste -- -- -- 48
2021-01-04 14:00:00 14.4 8 Oeste 25 Sudoeste -- -- -- 45
2021-01-04 13:00:00 14.4 9 Sur 18 Sudeste -- -- -- 44
2021-01-04 12:00:00 15.9 3 Sur 9 Este -- -- -- 41
2021-01-04 11:00:00 14.7 3 Oeste 17 Oeste -- -- -- 35
2021-01-04 10:00:00 11.1 8 Oeste 19 Oeste -- -- -- 42
2021-01-04 09:00:00 9.8 3 Noroeste 16 Norte -- -- -- 38
2021-01-04 08:00:00 8.7 10 Noroeste 14 Noroeste -- -- -- 36
2021-01-04 07:00:00 9.1 8 Noroeste 27 Noroeste -- -- -- 39
2021-01-04 06:00:00 9.4 15 Noroeste 27 Noroeste -- -- -- 38
2021-01-04 05:00:00 8.8 11 Noroeste 18 Norte -- -- -- 36
2021-01-04 04:00:00 9.5 7 Noroeste 16 Noroeste -- -- -- 40
2021-01-04 03:00:00 10 13 Norte 20 Norte -- -- -- 39
2021-01-04 02:00:00 9.9 12 Noroeste 26 Noroeste -- -- -- 38
2021-01-04 01:00:00 10.2 19 Noroeste 29 Oeste -- -- -- 36
2021-01-04 00:00:00 9.8 8 Noroeste 16 Norte -- -- -- 42
2021-01-03 23:00:00 10.3 9 Noroeste 17 Norte -- -- -- 50
2021-01-03 22:00:00 10.7 10 Noroeste 19 Norte -- -- -- 50
2021-01-03 21:00:00 11.1 9 Norte 14 Norte -- -- -- 50
2021-01-03 20:00:00 11.9 5 Oeste 18 Oeste -- -- -- 48
2021-01-03 19:00:00 11.8 8 Oeste 20 Oeste -- -- -- 43
2021-01-03 18:00:00 12 9 Oeste 21 Oeste -- -- -- 50
2021-01-03 17:00:00 12.2 7 Oeste 15 Oeste -- -- -- 47
2021-01-03 16:00:00 12.9 6 Sur 14 Sudeste -- -- -- 46
2021-01-03 15:00:00 13.3 7 Sudeste 18 Sudeste -- -- -- 49
2021-01-03 14:00:00 14.9 5 Este 16 Sudeste -- -- -- 43
2021-01-03 13:00:00 15.9 4 Sur 13 Oeste -- -- -- 36
2021-01-03 12:00:00 14.3 4 Oeste 23 Oeste -- -- -- 34
2021-01-03 11:00:00 12 15 Norte 34 Norte -- -- -- 31
2021-01-03 10:00:00 10.3 27 Norte 55 Norte -- -- -- 30
2021-01-03 09:00:00 9.3 32 Noroeste 58 Norte -- -- -- 33
2021-01-03 08:00:00 9.3 33 Noroeste 63 Norte -- -- -- 30
2021-01-03 07:00:00 9.5 33 Norte 67 Norte -- -- -- 32
2021-01-03 06:00:00 9.4 35 Norte 57 Norte -- -- -- 34
2021-01-03 05:00:00 9.6 29 Noroeste 58 Norte -- -- -- 34
2021-01-03 04:00:00 9.7 30 Noroeste 55 Noroeste -- -- -- 32
2021-01-03 03:00:00 9.8 31 Noroeste 82 Norte -- -- -- 33
2021-01-03 02:00:00 10 22 Noroeste 57 Norte -- -- -- 35
2021-01-03 01:00:00 10.1 27 Noroeste 64 Norte -- -- -- 34
2021-01-03 00:00:00 10.4 34 Noroeste 64 Noroeste -- -- -- 35
2021-01-02 23:00:00 10.1 35 Norte 59 Norte -- -- -- 35
2021-01-02 22:00:00 10.3 26 Norte 46 Norte -- -- -- 34
2021-01-02 21:00:00 10.2 21 Noroeste 65 Noroeste -- -- -- 35
2021-01-02 20:00:00 11.2 38 Oeste 70 Oeste -- -- -- 39
2021-01-02 19:00:00 11.5 24 Noroeste 45 Norte -- -- -- 31
2021-01-02 18:00:00 12.6 19 Noroeste 41 Noroeste -- -- -- 36
2021-01-02 17:00:00 13 12 Oeste 27 Sudoeste -- -- -- 47
2021-01-02 16:00:00 13.4 9 Sudoeste 64 Noroeste -- -- -- 48
2021-01-02 15:00:00 13.8 25 Oeste 67 Oeste -- -- -- 28
2021-01-02 14:00:00 14.3 34 Oeste 70 Noroeste -- -- -- 30